Time;durP1;ratioP1;P1;durP2;ratioP2;P2;SDS_P1;SDS_P2;PMS_P1;PMS_P2;Temp;Humidity;BMP_temperature;BMP_pressure;BME280_temperature;BME280_humidity;BME280_pressure;Samples;Min_cycle;Max_cycle;Signal;HPM_P1;HPM_P2
2022/06/05 00:02:18;;;;;;;7.05;6.35;;;;;;;;;;5078884;28;20064;-58
2022/06/05 00:05:41;;;;;;;;;;;;;;;;;;;;;
2022/06/05 00:08:45;;;;;;;;;;;;;;;;;;;;;
2022/06/05 00:11:12;;;;;;;6.95;5.38;;;;;;;;;;5013463;28;20467;-58
2022/06/05 00:14:03;;;;;;;7.03;6.28;;;;;;;;;;5025141;28;20412;-58
2022/06/05 00:16:38;;;;;;;6.28;5.68;;;;;;;;;;5024736;28;20108;-58
2022/06/05 00:19:33;;;;;;;6.95;6.25;;;;;;;;;;5024588;28;20029;-58
2022/06/05 00:25:17;;;;;;;6.85;6.15;;;;;;;;;;5044528;28;20386;-58
2022/06/05 00:28:22;;;;;;;7.13;6.47;;;;;;;;;;5045459;28;20065;-58
2022/06/05 00:31:06;;;;;;;7.78;6.82;;;;;;;;;;5045546;28;20097;-58
2022/06/05 00:34:13;;;;;;;6.55;5.95;;;;;;;;;;4965527;29;20046;-58
2022/06/05 00:40:21;;;;;;;7.75;6.35;;;;;;;;;;5045636;28;20037;-58
2022/06/05 00:46:03;;;;;;;6.47;5.88;;;;;;;;;;5017986;28;20033;-58
2022/06/05 00:49:01;;;;;;;7.55;6.65;;;;;;;;;;5044800;28;20029;-58
2022/06/05 00:51:41;;;;;;;7.43;6.25;;;;;;;;;;5010344;28;20164;-58
2022/06/05 00:57:21;;;;;;;8.88;6.45;;;;;;;;;;5045073;28;19983;-58
2022/06/05 01:02:48;;;;;;;7.45;6.68;;;;;;;;;;5040551;28;20033;-58
2022/06/05 01:05:46;;;;;;;;;;;;;;;;;;;;;
2022/06/05 01:11:33;;;;;;;6.90;6.20;;;;;;;;;;5053168;28;20029;-58
2022/06/05 01:14:10;;;;;;;7.90;7.10;;;;;;;;;;5077884;28;20045;-58
2022/06/05 01:20:03;;;;;;;7.68;6.88;;;;;;;;;;5048526;28;20041;-58
2022/06/05 01:23:02;;;;;;;7.80;6.95;;;;;;;;;;5048269;28;20041;-58
2022/06/05 01:29:12;;;;;;;8.15;6.85;;;;;;;;;;5063690;28;20088;-58
2022/06/05 01:31:50;;;;;;;7.00;6.30;;;;;;;;;;5048719;28;20108;-58
2022/06/05 01:34:31;;;;;;;7.88;6.88;;;;;;;;;;5066882;28;20036;-58
2022/06/05 01:36:59;;;;;;;;;;;;;;;;;;5067153;28;20535;-58
2022/06/05 01:39:50;;;;;;;7.20;6.28;;;;;;;;;;5066518;28;19905;-58
2022/06/05 01:42:55;;;;;;;7.57;6.88;;;;;;;;;;5066503;28;20075;-59
2022/06/05 01:45:46;;;;;;;6.90;6.30;;;;;;;;;;5042518;28;20057;-58
2022/06/05 01:48:42;;;;;;;10.07;6.55;;;;;;;;;;5043834;28;20041;-59
2022/06/05 01:51:29;;;;;;;6.47;5.90;;;;;;;;;;5031217;28;20040;-59
2022/06/05 01:54:07;;;;;;;7.43;6.70;;;;;;;;;;5027872;28;20071;-59
2022/06/05 02:00:13;;;;;;;7.68;6.88;;;;;;;;;;5042224;28;20428;-59
2022/06/05 02:03:00;;;;;;;7.03;6.43;;;;;;;;;;5044585;28;20036;-59
2022/06/05 02:06:03;;;;;;;;;;;;;;;;;;;;;
2022/06/05 02:08:49;;;;;;;7.93;6.70;;;;;;;;;;5043783;28;20154;-59
2022/06/05 02:14:29;;;;;;;7.80;7.00;;;;;;;;;;5044697;28;20545;-59
2022/06/05 02:17:05;;;;;;;8.05;6.93;;;;;;;;;;5060672;28;20079;-59
2022/06/05 02:19:50;;;;;;;7.03;6.32;;;;;;;;;;5047356;28;20510;-58
2022/06/05 02:25:31;;;;;;;7.15;6.47;;;;;;;;;;5047058;28;20029;-59
2022/06/05 02:31:38;;;;;;;7.10;6.40;;;;;;;;;;5040132;28;20041;-59
2022/06/05 02:34:30;;;;;;;7.93;7.13;;;;;;;;;;5013589;28;20041;-59
2022/06/05 02:40:20;;;;;;;6.53;5.82;;;;;;;;;;5046473;28;20052;-59
2022/06/05 02:43:05;;;;;;;8.77;7.80;;;;;;;;;;5023942;28;20046;-58
2022/06/05 02:49:16;;;;;;;8.68;7.85;;;;;;;;;;5002623;28;20079;-58
2022/06/05 02:52:08;;;;;;;9.07;8.18;;;;;;;;;;5028789;28;20053;-58
2022/06/05 02:55:10;;;;;;;7.55;6.78;;;;;;;;;;5046582;28;20069;-59
2022/06/05 02:58:09;;;;;;;12.68;8.18;;;;;;;;;;5039558;28;20430;-59
2022/06/05 03:00:40;;;;;;;13.50;6.95;;;;;;;;;;5002429;28;20038;-59
2022/06/05 03:06:24;;;;;;;7.93;7.25;;;;;;;;;;5046467;28;20498;-59
2022/06/05 03:08:54;;;;;;;8.50;7.70;;;;;;;;;;5046087;28;20025;-59
2022/06/05 03:14:56;;;;;;;8.32;7.38;;;;;;;;;;5023281;28;20042;-59
2022/06/05 03:17:41;;;;;;;9.15;8.10;;;;;;;;;;5046516;28;20085;-59
2022/06/05 03:20:30;;;;;;;11.55;8.65;;;;;;;;;;5031039;28;20372;-59
2022/06/05 03:23:52;;;;;;;10.10;8.80;;;;;;;;;;5049207;28;20567;-58
2022/06/05 03:26:40;;;;;;;11.60;7.78;;;;;;;;;;5008101;28;20034;-58
2022/06/05 03:29:13;;;;;;;9.27;8.38;;;;;;;;;;5049405;28;20473;-58
2022/06/05 03:31:51;;;;;;;10.18;8.30;;;;;;;;;;5025683;28;20059;-58
2022/06/05 03:34:36;;;;;;;9.38;8.48;;;;;;;;;;5038507;28;20025;-58
2022/06/05 03:38:07;;;;;;;;;;;;;;;;;;;;;
2022/06/05 03:40:15;;;;;;;8.38;7.57;;;;;;;;;;5028098;28;20026;-59
2022/06/05 03:43:08;;;;;;;7.97;7.22;;;;;;;;;;5037485;28;20036;-58
2022/06/05 03:51:48;;;;;;;8.45;7.63;;;;;;;;;;5020261;28;20081;-58
2022/06/05 03:54:36;;;;;;;7.57;6.88;;;;;;;;;;5037300;28;20352;-59
2022/06/05 03:57:20;;;;;;;8.00;7.00;;;;;;;;;;5019366;28;20037;-58
2022/06/05 04:06:27;;;;;;;7.47;6.72;;;;;;;;;;4976003;28;20027;-59
2022/06/05 04:11:59;;;;;;;8.30;7.43;;;;;;;;;;5036371;28;20037;-59
2022/06/05 04:14:55;;;;;;;7.68;6.85;;;;;;;;;;5036375;28;20022;-59
2022/06/05 04:17:24;;;;;;;8.45;7.65;;;;;;;;;;5036483;28;20037;-58
2022/06/05 04:20:11;;;;;;;7.30;6.47;;;;;;;;;;5017939;28;20030;-59
2022/06/05 04:22:55;;;;;;;8.50;7.63;;;;;;;;;;5036395;28;20036;-59
2022/06/05 04:25:50;;;;;;;7.35;6.65;;;;;;;;;;5010115;28;20038;-58
2022/06/05 04:28:29;;;;;;;7.65;6.55;;;;;;;;;;5042901;28;20036;-59
2022/06/05 04:31:11;;;;;;;11.07;7.85;;;;;;;;;;5036760;28;20351;-59
2022/06/05 04:33:58;;;;;;;7.50;6.80;;;;;;;;;;5035558;28;20021;-58
2022/06/05 04:36:42;;;;;;;9.27;8.05;;;;;;;;;;5004019;28;20543;-58
2022/06/05 04:42:23;;;;;;;8.15;7.35;;;;;;;;;;5035185;28;20116;-59
2022/06/05 04:45:02;;;;;;;8.73;7.93;;;;;;;;;;5036111;28;20080;-59
2022/06/05 04:48:06;;;;;;;9.35;8.55;;;;;;;;;;5035830;28;20034;-59
2022/06/05 04:51:18;;;;;;;12.10;9.38;;;;;;;;;;4994079;28;20034;-59
2022/06/05 04:54:05;;;;;;;10.32;8.93;;;;;;;;;;4991293;28;20520;-58
2022/06/05 04:56:48;;;;;;;9.75;8.75;;;;;;;;;;4993835;28;20509;-59
2022/06/05 04:59:34;;;;;;;9.77;8.88;;;;;;;;;;4994028;28;20038;-58
2022/06/05 05:02:09;;;;;;;9.88;8.82;;;;;;;;;;5014182;28;20398;-59
2022/06/05 05:05:02;;;;;;;11.55;10.40;;;;;;;;;;5048580;28;20395;-59
2022/06/05 05:07:38;;;;;;;11.00;9.77;;;;;;;;;;5011140;28;20045;-58
2022/06/05 05:10:18;;;;;;;14.23;10.68;;;;;;;;;;5048190;28;20025;-59
2022/06/05 05:13:06;;;;;;;;;;;;;;;;;;;;;
2022/06/05 05:15:47;;;;;;;11.32;10.23;;;;;;;;;;5035745;28;20017;-59
2022/06/05 05:18:21;;;;;;;;;;;;;;;;;;5017470;28;20083;-59
2022/06/05 05:21:03;;;;;;;12.00;10.32;;;;;;;;;;5050900;28;20003;-59
2022/06/05 05:24:12;;;;;;;12.05;10.85;;;;;;;;;;5012340;28;20052;-59
2022/06/05 05:27:14;;;;;;;10.57;9.57;;;;;;;;;;5016584;28;20064;-59
2022/06/05 05:34:06;;;;;;;;;;;;;;;;;;;;;
2022/06/05 05:36:14;;;;;;;12.25;11.00;;;;;;;;;;5012897;28;20029;-59
2022/06/05 05:42:04;;;;;;;12.60;11.43;;;;;;;;;;5035236;28;20033;-59
2022/06/05 05:44:23;;;;;;;12.25;11.07;;;;;;;;;;5013339;28;20537;-59
2022/06/05 05:50:08;;;;;;;13.98;12.45;;;;;;;;;;5013225;28;20064;-59
2022/06/05 05:52:52;;;;;;;15.52;12.05;;;;;;;;;;5012876;28;20030;-59
2022/06/05 05:58:40;;;;;;;15.55;13.95;;;;;;;;;;4998534;28;20120;-59
2022/06/05 06:01:36;;;;;;;15.73;14.13;;;;;;;;;;4996358;28;20530;-59
2022/06/05 06:04:26;;;;;;;15.27;12.82;;;;;;;;;;5013342;28;20085;-59
2022/06/05 06:07:09;;;;;;;13.10;11.90;;;;;;;;;;5031413;28;20033;-59
2022/06/05 06:10:01;;;;;;;13.60;12.20;;;;;;;;;;5032735;28;20383;-59
2022/06/05 06:12:47;;;;;;;14.57;11.60;;;;;;;;;;5035254;28;20028;-59
2022/06/05 06:15:26;;;;;;;11.98;10.68;;;;;;;;;;5032812;28;20108;-59
2022/06/05 06:21:17;;;;;;;10.60;9.35;;;;;;;;;;5031350;28;20025;-59
2022/06/05 06:24:13;;;;;;;11.73;9.55;;;;;;;;;;5018486;28;20072;-59
2022/06/05 06:27:00;;;;;;;8.57;7.68;;;;;;;;;;5022723;28;20403;-59
2022/06/05 06:29:50;;;;;;;9.60;8.75;;;;;;;;;;4992948;28;20046;-59
2022/06/05 06:32:26;;;;;;;8.40;7.60;;;;;;;;;;5035698;28;20037;-59
2022/06/05 06:35:12;;;;;;;8.05;6.65;;;;;;;;;;5035249;28;20022;-59
2022/06/05 06:44:36;;;;;;;7.18;5.45;;;;;;;;;;4983214;28;20034;-59
2022/06/05 06:47:34;;;;;;;7.72;6.72;;;;;;;;;;5049601;28;20033;-59
2022/06/05 06:59:38;;;;;;;5.75;4.90;;;;;;;;;;4935720;29;20050;-59
2022/06/05 07:02:07;;;;;;;;;;;;;;;;;;4956577;29;20433;-59
2022/06/05 07:05:03;;;;;;;6.82;3.88;;;;;;;;;;5033278;28;20377;-59
2022/06/05 07:07:51;;;;;;;;;;;;;;;;;;;;;
2022/06/05 07:10:29;;;;;;;4.43;4.03;;;;;;;;;;5037549;28;20029;-59
2022/06/05 07:13:18;;;;;;;;;;;;;;;;;;;;;
2022/06/05 07:16:05;;;;;;;5.25;3.72;;;;;;;;;;5037675;28;20026;-59
2022/06/05 07:18:42;;;;;;;4.82;3.83;;;;;;;;;;5036778;28;20033;-59
2022/06/05 07:21:22;;;;;;;4.72;3.65;;;;;;;;;;5038007;28;20025;-59
2022/06/05 07:24:16;;;;;;;5.13;3.55;;;;;;;;;;5022961;28;20084;-59
2022/06/05 07:27:03;;;;;;;3.63;2.40;;;;;;;;;;5039136;28;20033;-58
2022/06/05 07:29:35;;;;;;;4.18;2.80;;;;;;;;;;5057122;28;20174;-59
2022/06/05 07:35:35;;;;;;;6.80;3.08;;;;;;;;;;5058032;28;20064;-59
2022/06/05 07:41:02;;;;;;;4.72;3.63;;;;;;;;;;5057319;28;20036;-58
2022/06/05 07:43:51;;;;;;;7.32;4.57;;;;;;;;;;5057228;28;20025;-58
2022/06/05 07:46:40;;;;;;;4.82;3.88;;;;;;;;;;5027180;28;20112;-59
2022/06/05 07:58:34;;;;;;;8.38;3.35;;;;;;;;;;5056519;28;20471;-59
2022/06/05 08:01:42;;;;;;;;;;;;;;;;;;;;;
2022/06/05 08:07:51;;;;;;;4.93;3.72;;;;;;;;;;5014327;28;20041;-59
2022/06/05 08:10:43;;;;;;;5.13;4.13;;;;;;;;;;5015761;28;20042;-59
2022/06/05 08:13:32;;;;;;;;;;;;;;;;;;;;;
2022/06/05 08:19:18;;;;;;;4.00;3.38;;;;;;;;;;5030250;28;20089;-59
2022/06/05 08:22:28;;;;;;;3.40;2.70;;;;;;;;;;5057039;28;20463;-59
2022/06/05 08:25:24;;;;;;;6.45;3.40;;;;;;;;;;5056613;28;20120;-59
2022/06/05 08:27:58;;;;;;;3.28;2.65;;;;;;;;;;5038601;28;20043;-60
2022/06/05 08:31:03;;;;;;;4.30;2.90;;;;;;;;;;5039505;28;20336;-61
2022/06/05 08:34:03;;;;;;;2.90;2.33;;;;;;;;;;5033289;28;20029;-60
2022/06/05 08:36:57;;;;;;;;;;;;;;;;;;;;;
2022/06/05 08:42:29;;;;;;;5.93;2.72;;;;;;;;;;5056807;28;20104;-58
2022/06/05 08:45:15;;;;;;;3.10;2.38;;;;;;;;;;5021917;28;20032;-59
2022/06/05 08:48:13;;;;;;;5.40;2.63;;;;;;;;;;5039180;28;20029;-59
2022/06/05 08:51:09;;;;;;;5.72;2.42;;;;;;;;;;5038399;28;20091;-59
2022/06/05 08:54:03;;;;;;;2.70;2.03;;;;;;;;;;5017594;28;20523;-59
2022/06/05 08:57:34;;;;;;;4.78;2.47;;;;;;;;;;5040802;28;20479;-59
2022/06/05 09:00:21;;;;;;;;;;;;;;;;;;;;;
2022/06/05 09:03:34;;;;;;;4.80;1.95;;;;;;;;;;5052406;28;20039;-60
2022/06/05 09:09:17;;;;;;;;;;;;;;;;;;;;;
2022/06/05 09:12:21;;;;;;;2.75;1.60;;;;;;;;;;5054992;28;20368;-58
2022/06/05 09:15:07;;;;;;;2.10;1.40;;;;;;;;;;5032882;28;20033;-58
2022/06/05 09:18:00;;;;;;;;;;;;;;;;;;;;;
2022/06/05 09:21:06;;;;;;;2.42;1.45;;;;;;;;;;5051598;28;20043;-59
2022/06/05 09:23:47;;;;;;;2.72;1.60;;;;;;;;;;5054745;28;20027;-59
2022/06/05 09:26:53;;;;;;;7.03;1.40;;;;;;;;;;5034231;28;20487;-59
2022/06/05 09:32:51;;;;;;;1.95;0.80;;;;;;;;;;5026428;28;20120;-59
2022/06/05 09:46:02;;;;;;;4.43;1.27;;;;;;;;;;4934572;29;20159;-58
2022/06/05 09:48:43;;;;;;;1.95;0.90;;;;;;;;;;4879857;29;20131;-58
2022/06/05 09:51:24;;;;;;;1.55;0.95;;;;;;;;;;5033007;28;20025;-58
2022/06/05 09:54:20;;;;;;;3.50;0.90;;;;;;;;;;5034869;28;20412;-58
2022/06/05 10:00:26;;;;;;;2.08;0.93;;;;;;;;;;5034228;28;20028;-58
2022/06/05 10:03:15;;;;;;;1.63;1.00;;;;;;;;;;5034076;28;20550;-58
2022/06/05 10:06:20;;;;;;;1.88;1.13;;;;;;;;;;5034374;28;20025;-58
2022/06/05 10:09:05;;;;;;;1.45;0.82;;;;;;;;;;5021913;28;20034;-59
2022/06/05 10:12:16;;;;;;;2.25;0.93;;;;;;;;;;5034531;28;20049;-60
2022/06/05 10:18:25;;;;;;;1.83;0.93;;;;;;;;;;5028886;28;20045;-60
2022/06/05 10:27:28;;;;;;;1.52;0.93;;;;;;;;;;5031779;28;20056;-60
2022/06/05 10:29:59;;;;;;;2.67;1.65;;;;;;;;;;5011512;28;20471;-60
2022/06/05 10:32:43;;;;;;;2.42;1.17;;;;;;;;;;5054932;28;20334;-60
2022/06/05 10:35:39;;;;;;;8.48;1.98;;;;;;;;;;5054333;28;20382;-59
2022/06/05 10:38:43;;;;;;;5.15;1.52;;;;;;;;;;4953880;29;20126;-59
2022/06/05 10:41:37;;;;;;;5.30;2.83;;;;;;;;;;4953572;29;20095;-59
2022/06/05 10:47:40;;;;;;;4.78;2.72;;;;;;;;;;5046647;28;20033;-59
2022/06/05 10:50:42;;;;;;;10.45;2.67;;;;;;;;;;5055053;28;20036;-59
2022/06/05 10:53:31;;;;;;;3.72;3.05;;;;;;;;;;5036580;28;20037;-59
2022/06/05 10:56:19;;;;;;;5.30;3.40;;;;;;;;;;5044670;28;20033;-59
2022/06/05 11:05:40;;;;;;;;;;;;;;;;;;;;;
2022/06/05 11:08:29;;;;;;;6.70;4.20;;;;;;;;;;5014860;28;20121;-59
2022/06/05 11:14:20;;;;;;;6.97;3.72;;;;;;;;;;5011889;28;20371;-59
2022/06/05 11:16:57;;;;;;;4.40;3.35;;;;;;;;;;5011317;28;20444;-59
2022/06/05 11:19:41;;;;;;;9.68;4.15;;;;;;;;;;4993294;28;20077;-59
2022/06/05 11:25:36;;;;;;;3.80;2.60;;;;;;;;;;5010039;28;20156;-59
2022/06/05 11:28:20;;;;;;;4.75;3.30;;;;;;;;;;5011301;28;20046;-59
2022/06/05 11:34:02;;;;;;;3.15;2.78;;;;;;;;;;5011420;28;20149;-59
2022/06/05 11:39:57;;;;;;;5.28;3.47;;;;;;;;;;5038453;28;20045;-58
2022/06/05 11:42:38;;;;;;;4.55;3.33;;;;;;;;;;5057060;28;20032;-59
2022/06/05 11:45:46;;;;;;;4.10;3.30;;;;;;;;;;5056938;28;20021;-59
2022/06/05 11:48:46;;;;;;;6.40;3.70;;;;;;;;;;5039793;28;20045;-60
2022/06/05 11:51:49;;;;;;;6.53;4.70;;;;;;;;;;5056885;28;20021;-58
2022/06/05 11:55:03;;;;;;;;;;;;;;;;;;;;;
2022/06/05 11:57:47;;;;;;;5.28;3.65;;;;;;;;;;4956907;29;20421;-59
2022/06/05 12:00:37;;;;;;;4.00;2.55;;;;;;;;;;4992864;28;20063;-59
2022/06/05 12:03:33;;;;;;;5.13;2.90;;;;;;;;;;5057132;28;20021;-59
2022/06/05 12:13:10;;;;;;;3.00;2.00;;;;;;;;;;4975627;28;20089;-59
2022/06/05 12:16:11;;;;;;;;;;;;;;;;;;;;;
2022/06/05 12:18:42;;;;;;;6.00;2.08;;;;;;;;;;4974530;28;20368;-59
2022/06/05 12:21:36;;;;;;;3.20;1.67;;;;;;;;;;4975308;28;20583;-59
2022/06/05 12:24:37;;;;;;;3.88;1.85;;;;;;;;;;4975519;28;20138;-59
2022/06/05 12:27:32;;;;;;;5.40;1.92;;;;;;;;;;4962229;28;20051;-59
2022/06/05 12:33:52;;;;;;;7.10;1.42;;;;;;;;;;4938503;29;20223;-59
2022/06/05 12:36:32;;;;;;;4.75;2.13;;;;;;;;;;4955886;29;20050;-59
2022/06/05 12:45:34;;;;;;;3.88;2.25;;;;;;;;;;4956002;29;20517;-59
2022/06/05 12:48:31;;;;;;;;;;;;;;;;;;;;;
2022/06/05 12:51:07;;;;;;;3.38;1.77;;;;;;;;;;4955968;28;20041;-59
2022/06/05 12:53:54;;;;;;;4.55;2.30;;;;;;;;;;4955675;29;20110;-59
2022/06/05 13:00:21;;;;;;;2.88;2.10;;;;;;;;;;4952789;29;20171;-59
2022/06/05 13:03:26;;;;;;;3.45;2.28;;;;;;;;;;4997476;28;20216;-59
2022/06/05 13:06:11;;;;;;;3.95;2.58;;;;;;;;;;5033396;28;20029;-60
2022/06/05 13:08:58;;;;;;;4.90;2.20;;;;;;;;;;5054844;28;20501;-59
2022/06/05 13:11:34;;;;;;;6.55;2.50;;;;;;;;;;5054681;28;20144;-59
2022/06/05 13:17:57;;;;;;;;;;;;;;;;;;;;;
2022/06/05 13:20:49;;;;;;;11.07;2.60;;;;;;;;;;5031761;28;20037;-59
2022/06/05 13:23:44;;;;;;;3.55;1.60;;;;;;;;;;5054719;28;20155;-59
2022/06/05 13:26:36;;;;;;;2.85;1.35;;;;;;;;;;5007323;28;20050;-60
2022/06/05 13:29:23;;;;;;;3.65;2.05;;;;;;;;;;5012824;28;20041;-60
2022/06/05 13:35:27;;;;;;;8.88;1.50;;;;;;;;;;5014697;28;20053;-59
2022/06/05 13:38:31;;;;;;;;;;;;;;;;;;;;;
2022/06/05 13:43:56;;;;;;;4.03;2.10;;;;;;;;;;4983372;28;20030;-59
2022/06/05 13:46:44;;;;;;;5.10;1.83;;;;;;;;;;5003128;28;20155;-59
2022/06/05 13:49:42;;;;;;;2.67;2.00;;;;;;;;;;5015082;28;20112;-59
2022/06/05 14:04:50;;;;;;;5.53;1.20;;;;;;;;;;4991051;28;20085;-59
2022/06/05 14:07:44;;;;;;;3.67;1.67;;;;;;;;;;5015012;28;20034;-59
2022/06/05 14:10:39;;;;;;;3.75;1.80;;;;;;;;;;4956542;28;20035;-59
2022/06/05 14:13:35;;;;;;;6.10;1.30;;;;;;;;;;4973599;28;20027;-59
2022/06/05 14:16:16;;;;;;;4.72;1.33;;;;;;;;;;4952211;28;20093;-60
2022/06/05 14:18:54;;;;;;;;;;;;;;;;;;;;;
2022/06/05 14:21:44;;;;;;;4.85;1.70;;;;;;;;;;4917576;28;20039;-59
2022/06/05 14:24:36;;;;;;;;;;;;;;;;;;;;;
2022/06/05 14:27:20;;;;;;;;;;;;;;;;;;;;;
2022/06/05 14:30:08;;;;;;;3.20;1.42;;;;;;;;;;4971427;28;20037;-59
2022/06/05 14:33:03;;;;;;;2.30;1.40;;;;;;;;;;4973707;28;20066;-59
2022/06/05 14:35:50;;;;;;;4.25;1.60;;;;;;;;;;5016427;28;20383;-59
2022/06/05 14:38:55;;;;;;;3.90;2.00;;;;;;;;;;5027538;28;20052;-59
2022/06/05 14:41:38;;;;;;;3.40;1.95;;;;;;;;;;5034362;28;20048;-59
2022/06/05 14:44:39;;;;;;;;;;;;;;;;;;;;;
2022/06/05 14:47:34;;;;;;;;;;;;;;;;;;;;;
2022/06/05 14:50:42;;;;;;;6.13;1.50;;;;;;;;;;5033967;28;20073;-60
2022/06/05 14:53:30;;;;;;;2.97;2.13;;;;;;;;;;4973532;28;20038;-59
2022/06/05 15:02:11;;;;;;;3.20;2.20;;;;;;;;;;4973461;28;20041;-59
2022/06/05 15:04:55;;;;;;;6.90;2.30;;;;;;;;;;4936660;28;20393;-59
2022/06/05 15:07:44;;;;;;;3.08;2.15;;;;;;;;;;4973072;28;20078;-59
2022/06/05 15:10:37;;;;;;;3.42;2.33;;;;;;;;;;4935091;29;20123;-59
2022/06/05 15:16:39;;;;;;;3.63;2.20;;;;;;;;;;4980014;28;20414;-59
2022/06/05 15:19:35;;;;;;;5.03;2.30;;;;;;;;;;5037716;28;20034;-59
2022/06/05 15:22:13;;;;;;;5.03;1.92;;;;;;;;;;5040372;28;20029;-59
2022/06/05 15:34:07;;;;;;;3.17;2.17;;;;;;;;;;5045249;28;20490;-59
2022/06/05 15:37:11;;;;;;;4.00;2.78;;;;;;;;;;5045255;28;20021;-59
2022/06/05 15:40:02;;;;;;;4.95;2.35;;;;;;;;;;5045024;28;20439;-59
2022/06/05 15:43:03;;;;;;;;;;;;;;;;;;;;;
2022/06/05 15:52:09;;;;;;;3.08;1.00;;;;;;;;;;5033886;28;20039;-59
2022/06/05 15:55:00;;;;;;;2.95;1.88;;;;;;;;;;5024567;28;20037;-60
2022/06/05 16:04:29;;;;;;;3.58;1.42;;;;;;;;;;5017731;28;20060;-59
2022/06/05 16:10:20;;;;;;;1.80;1.00;;;;;;;;;;5044638;28;20032;-59
2022/06/05 16:13:18;;;;;;;4.07;1.40;;;;;;;;;;5042293;28;20087;-59
2022/06/05 16:19:14;;;;;;;2.75;1.48;;;;;;;;;;5045216;28;20041;-59
2022/06/05 16:22:00;;;;;;;2.05;1.40;;;;;;;;;;5046022;28;20025;-59
2022/06/05 16:24:34;;;;;;;3.65;3.03;;;;;;;;;;5018555;28;20479;-59
2022/06/05 16:27:24;;;;;;;5.00;3.75;;;;;;;;;;5037203;28;20076;-60
2022/06/05 16:30:17;;;;;;;4.22;2.90;;;;;;;;;;5023959;28;20065;-59
2022/06/05 16:38:40;;;;;;;3.15;1.20;;;;;;;;;;5035504;28;20164;-59
2022/06/05 16:45:04;;;;;;;2.20;1.27;;;;;;;;;;5035940;28;20033;-60
2022/06/05 16:48:03;;;;;;;;;;;;;;;;;;;;;
2022/06/05 16:53:49;;;;;;;;;;;;;;;;;;;;;
2022/06/05 16:56:36;;;;;;;3.17;1.50;;;;;;;;;;4992881;28;20039;-60
2022/06/05 16:59:28;;;;;;;2.55;1.30;;;;;;;;;;5017126;28;20037;-60
2022/06/05 17:02:21;;;;;;;2.10;1.20;;;;;;;;;;5035830;28;20032;-60
2022/06/05 17:05:19;;;;;;;2.47;1.08;;;;;;;;;;5034620;28;20040;-60
2022/06/05 17:11:18;;;;;;;4.95;2.03;;;;;;;;;;5021588;28;20356;-60
2022/06/05 17:14:05;;;;;;;2.88;1.80;;;;;;;;;;5035499;28;20060;-60
2022/06/05 17:17:17;;;;;;;3.40;1.92;;;;;;;;;;5018421;28;20021;-60
2022/06/05 17:19:59;;;;;;;;;;;;;;;;;;;;;
2022/06/05 17:22:45;;;;;;;3.47;1.63;;;;;;;;;;4992528;28;20037;-60
2022/06/05 17:28:47;;;;;;;3.97;1.83;;;;;;;;;;5034823;28;20479;-60
2022/06/05 17:31:52;;;;;;;;;;;;;;;;;;;;;
2022/06/05 17:34:28;;;;;;;6.95;6.00;;;;;;;;;;5022890;28;20030;-60
2022/06/05 17:37:32;;;;;;;9.50;6.10;;;;;;;;;;5035030;28;20033;-60
2022/06/05 17:40:26;;;;;;;3.72;3.03;;;;;;;;;;4977769;28;20109;-60
2022/06/05 17:43:33;;;;;;;2.03;1.10;;;;;;;;;;4993435;28;20027;-60
2022/06/05 17:46:31;;;;;;;1.55;0.90;;;;;;;;;;4976467;28;20031;-60
2022/06/05 17:49:18;;;;;;;2.58;1.20;;;;;;;;;;4976912;28;20041;-60
2022/06/05 17:52:19;;;;;;;3.60;1.42;;;;;;;;;;4993262;28;20106;-60
2022/06/05 17:55:09;;;;;;;1.50;0.73;;;;;;;;;;4973949;28;20038;-60
2022/06/05 17:58:02;;;;;;;;;;;;;;;;;;;;;
2022/06/05 18:00:58;;;;;;;2.97;1.20;;;;;;;;;;4979915;28;20540;-60
2022/06/05 18:03:27;;;;;;;2.10;1.10;;;;;;;;;;4991864;28;20042;-60
2022/06/05 18:06:10;;;;;;;1.95;0.90;;;;;;;;;;4976062;28;20412;-60
2022/06/05 18:08:54;;;;;;;2.83;0.90;;;;;;;;;;4992948;28;20057;-60
2022/06/05 18:11:27;;;;;;;1.38;0.68;;;;;;;;;;4993165;28;20094;-60
2022/06/05 18:14:18;;;;;;;0.90;0.40;;;;;;;;;;4993682;28;20030;-60
2022/06/05 18:17:08;;;;;;;1.13;0.73;;;;;;;;;;4971860;28;20535;-60
2022/06/05 18:19:59;;;;;;;1.48;0.55;;;;;;;;;;4993029;28;20069;-60
2022/06/05 18:26:10;;;;;;;1.05;0.40;;;;;;;;;;5009940;28;20043;-60
2022/06/05 18:29:01;;;;;;;1.27;0.60;;;;;;;;;;5035385;28;20053;-60
2022/06/05 18:32:07;;;;;;;1.02;0.57;;;;;;;;;;5035156;28;20032;-60
2022/06/05 18:35:05;;;;;;;1.05;0.63;;;;;;;;;;5034523;28;20028;-60
2022/06/05 18:40:58;;;;;;;1.35;0.60;;;;;;;;;;5032613;28;20506;-60
2022/06/05 18:49:41;;;;;;;1.10;0.40;;;;;;;;;;5031174;28;20129;-60
2022/06/05 18:55:28;;;;;;;1.13;0.40;;;;;;;;;;5009098;28;20029;-60
2022/06/05 19:01:34;;;;;;;;;;;;;;;;;;;;;
2022/06/05 19:04:28;;;;;;;1.02;0.40;;;;;;;;;;5038011;28;20021;-60
2022/06/05 19:10:29;;;;;;;1.40;0.30;;;;;;;;;;4975866;28;20030;-60
2022/06/05 19:13:20;;;;;;;2.22;0.70;;;;;;;;;;5034527;28;20112;-60
2022/06/05 19:15:56;;;;;;;0.80;0.40;;;;;;;;;;5037390;28;20025;-60
2022/06/05 19:21:26;;;;;;;1.48;0.80;;;;;;;;;;5006182;28;20029;-60
2022/06/05 19:24:23;;;;;;;0.90;0.40;;;;;;;;;;5037446;28;20021;-60
2022/06/05 19:26:52;;;;;;;2.33;0.95;;;;;;;;;;5035320;28;20053;-60
2022/06/05 19:29:43;;;;;;;1.13;0.40;;;;;;;;;;5053496;28;20038;-60
2022/06/05 19:32:14;;;;;;;3.25;1.05;;;;;;;;;;5037112;28;20021;-60
2022/06/05 19:35:12;;;;;;;3.38;0.65;;;;;;;;;;5018608;28;20081;-59
2022/06/05 19:41:10;;;;;;;1.73;0.55;;;;;;;;;;4999272;28;20052;-59
2022/06/05 19:43:51;;;;;;;1.17;0.65;;;;;;;;;;5037836;28;20387;-59
2022/06/05 19:46:29;;;;;;;2.97;1.20;;;;;;;;;;5015736;28;20492;-59
2022/06/05 19:52:17;;;;;;;1.60;0.90;;;;;;;;;;5007299;28;20084;-59
2022/06/05 19:54:49;;;;;;;1.25;0.73;;;;;;;;;;4998877;28;20037;-59
2022/06/05 20:00:40;;;;;;;1.35;0.63;;;;;;;;;;4991290;28;20030;-59
2022/06/05 20:03:17;;;;;;;2.03;0.77;;;;;;;;;;5015157;28;20034;-59
2022/06/05 20:05:54;;;;;;;2.15;0.95;;;;;;;;;;4997140;28;20566;-59
2022/06/05 20:08:34;;;;;;;1.75;0.90;;;;;;;;;;4997263;28;20487;-58
2022/06/05 20:11:25;;;;;;;2.53;0.50;;;;;;;;;;5027892;28;20037;-59
2022/06/05 20:14:16;;;;;;;1.90;0.73;;;;;;;;;;5036818;28;20079;-59
2022/06/05 20:17:08;;;;;;;1.60;0.70;;;;;;;;;;5036140;28;20049;-59
2022/06/05 20:20:00;;;;;;;1.40;0.80;;;;;;;;;;5035082;28;20041;-58
2022/06/05 20:22:36;;;;;;;2.28;0.82;;;;;;;;;;5015093;28;20033;-59
2022/06/05 20:25:21;;;;;;;3.95;1.02;;;;;;;;;;4998585;28;20050;-59
2022/06/05 20:28:23;;;;;;;3.20;1.08;;;;;;;;;;5014060;28;20054;-59
2022/06/05 20:31:17;;;;;;;2.47;1.10;;;;;;;;;;5014884;28;20098;-59
2022/06/05 20:34:02;;;;;;;2.63;0.93;;;;;;;;;;5014450;28;20430;-59
2022/06/05 20:36:47;;;;;;;1.92;1.20;;;;;;;;;;5014550;28;20038;-59
2022/06/05 20:39:40;;;;;;;1.70;1.10;;;;;;;;;;4998154;28;20133;-59
2022/06/05 20:42:25;;;;;;;3.10;1.30;;;;;;;;;;5014178;28;20121;-59
2022/06/05 20:45:19;;;;;;;1.63;0.95;;;;;;;;;;5014391;28;20034;-59
2022/06/05 20:51:13;;;;;;;1.67;0.85;;;;;;;;;;5014759;28;20093;-59
2022/06/05 20:53:59;;;;;;;3.08;1.55;;;;;;;;;;5027487;28;20029;-59
2022/06/05 21:08:53;;;;;;;3.17;1.35;;;;;;;;;;5044673;28;20040;-59
2022/06/05 21:17:27;;;;;;;3.50;1.05;;;;;;;;;;5045742;28;20037;-59
2022/06/05 21:23:41;;;;;;;1.92;1.20;;;;;;;;;;5037083;28;20545;-59
2022/06/05 21:26:17;;;;;;;4.95;1.55;;;;;;;;;;5004169;28;20027;-60
2022/06/05 21:28:48;;;;;;;2.80;1.33;;;;;;;;;;5005300;28;20050;-60
2022/06/05 21:31:34;;;;;;;1.80;0.95;;;;;;;;;;5022334;28;20129;-60
2022/06/05 21:36:54;;;;;;;2.83;1.60;;;;;;;;;;4966318;29;20043;-60
2022/06/05 21:40:08;;;;;;;3.72;1.20;;;;;;;;;;4966136;29;20035;-60
2022/06/05 21:48:56;;;;;;;1.90;1.23;;;;;;;;;;4837065;29;20053;-59
2022/06/05 21:51:42;;;;;;;4.97;1.92;;;;;;;;;;4924240;29;20052;-60
2022/06/05 22:03:58;;;;;;;6.38;2.30;;;;;;;;;;5047946;28;20036;-60
2022/06/05 22:06:47;;;;;;;2.40;1.65;;;;;;;;;;5047735;28;20017;-60
2022/06/05 22:09:44;;;;;;;5.03;1.80;;;;;;;;;;5029606;28;20037;-60
2022/06/05 22:12:38;;;;;;;2.33;1.40;;;;;;;;;;5048254;28;20463;-59
2022/06/05 22:15:15;;;;;;;2.28;1.50;;;;;;;;;;5045311;28;20184;-60
2022/06/05 22:18:02;;;;;;;5.65;1.80;;;;;;;;;;5041564;28;20037;-60
2022/06/05 22:20:34;;;;;;;2.70;1.70;;;;;;;;;;5038157;28;20068;-60
2022/06/05 22:23:18;;;;;;;3.97;1.75;;;;;;;;;;5042701;28;20026;-60
2022/06/05 22:25:54;;;;;;;3.55;2.03;;;;;;;;;;5031963;28;20025;-60
2022/06/05 22:28:56;;;;;;;3.15;1.50;;;;;;;;;;5047620;28;20053;-60
2022/06/05 22:31:34;;;;;;;5.32;1.98;;;;;;;;;;5018855;28;20053;-60
2022/06/05 22:37:34;;;;;;;3.60;1.60;;;;;;;;;;5016019;28;20045;-60
2022/06/05 22:43:33;;;;;;;4.30;2.15;;;;;;;;;;5006019;28;20045;-60
2022/06/05 22:46:25;;;;;;;4.78;2.03;;;;;;;;;;5006322;28;20033;-60
2022/06/05 22:49:17;;;;;;;6.75;1.67;;;;;;;;;;5029578;28;20108;-60
2022/06/05 22:52:10;;;;;;;2.80;1.90;;;;;;;;;;5047740;28;20034;-60
2022/06/05 23:01:03;;;;;;;3.20;2.63;;;;;;;;;;4987329;28;20142;-60
2022/06/05 23:03:51;;;;;;;3.15;2.10;;;;;;;;;;5047262;28;20022;-60
2022/06/05 23:06:34;;;;;;;6.28;2.13;;;;;;;;;;5047187;28;20022;-60
2022/06/05 23:09:12;;;;;;;6.35;2.17;;;;;;;;;;5047770;28;20029;-60
2022/06/05 23:11:55;;;;;;;2.17;1.52;;;;;;;;;;5047084;28;20329;-60
2022/06/05 23:14:40;;;;;;;2.17;1.48;;;;;;;;;;5006398;28;20034;-60
2022/06/05 23:17:29;;;;;;;4.00;2.17;;;;;;;;;;4986171;28;20518;-60
2022/06/05 23:20:29;;;;;;;2.90;2.25;;;;;;;;;;4999959;28;20069;-60
2022/06/05 23:23:16;;;;;;;3.38;1.95;;;;;;;;;;5005242;28;20045;-60
2022/06/05 23:26:03;;;;;;;3.58;2.30;;;;;;;;;;5005675;28;20038;-60
2022/06/05 23:29:00;;;;;;;2.35;1.77;;;;;;;;;;4994803;28;20183;-60